createdAt,value
2022-09-14T00:01:45.267Z,13.70
2022-09-14T00:04:18.199Z,13.70
2022-09-14T00:06:48.332Z,13.60
2022-09-14T00:09:20.365Z,13.60
2022-09-14T00:11:49.387Z,13.60
2022-09-14T00:14:18.993Z,13.60
2022-09-14T00:16:48.584Z,13.70
2022-09-14T00:19:21.793Z,13.70
2022-09-14T00:21:54.437Z,13.70
2022-09-14T00:24:23.401Z,13.70
2022-09-14T00:26:52.107Z,13.60
2022-09-14T00:29:20.901Z,13.60
2022-09-14T00:31:49.220Z,13.60
2022-09-14T00:34:20.299Z,13.70
2022-09-14T00:36:51.490Z,13.60
2022-09-14T00:39:24.843Z,13.60
2022-09-14T00:41:54.177Z,13.60
2022-09-14T00:45:08.366Z,13.60
2022-09-14T00:47:37.380Z,13.60
2022-09-14T00:50:08.578Z,13.70
2022-09-14T00:52:43.522Z,13.60
2022-09-14T00:55:15.461Z,13.60
2022-09-14T00:57:48.820Z,13.60
2022-09-14T01:00:21.723Z,13.50
2022-09-14T01:02:50.626Z,13.50
2022-09-14T01:05:25.914Z,13.50
2022-09-14T01:08:23.743Z,13.50
2022-09-14T01:11:12.756Z,13.50
2022-09-14T01:13:56.660Z,13.60
2022-09-14T01:16:35.753Z,13.60
2022-09-14T01:19:10.196Z,13.50
2022-09-14T01:21:45.398Z,13.50
2022-09-14T01:24:27.651Z,13.50
2022-09-14T01:27:25.501Z,13.50
2022-09-14T01:30:04.618Z,13.50
2022-09-14T01:32:42.011Z,13.40
2022-09-14T01:35:19.848Z,13.40
2022-09-14T01:37:55.003Z,13.40
2022-09-14T01:40:30.680Z,13.30
2022-09-14T01:43:09.094Z,13.30
2022-09-14T01:45:42.206Z,13.30
2022-09-14T01:48:15.244Z,13.20
2022-09-14T01:50:48.469Z,13.20
2022-09-14T01:53:26.309Z,13.10
2022-09-14T01:56:06.512Z,13.10
2022-09-14T01:58:41.385Z,13.10
2022-09-14T02:01:19.192Z,13.00
2022-09-14T02:03:54.185Z,13.00
2022-09-14T02:06:28.434Z,13.00
2022-09-14T02:08:57.124Z,13.00
2022-09-14T02:11:25.518Z,12.90
2022-09-14T02:13:55.227Z,12.90
2022-09-14T02:16:26.051Z,12.80
2022-09-14T02:18:54.934Z,12.80
2022-09-14T02:21:30.087Z,12.80
2022-09-14T02:24:00.030Z,12.70
2022-09-14T02:26:29.603Z,12.70
2022-09-14T02:28:59.682Z,12.70
2022-09-14T02:31:39.022Z,12.60
2022-09-14T02:34:17.689Z,12.60
2022-09-14T02:36:54.923Z,12.60
2022-09-14T02:39:36.333Z,12.60
2022-09-14T02:42:20.505Z,12.70
2022-09-14T02:45:03.625Z,12.80
2022-09-14T02:47:44.256Z,12.80
2022-09-14T02:50:25.748Z,12.80
2022-09-14T02:53:05.845Z,12.80
2022-09-14T02:55:40.262Z,12.80
2022-09-14T02:58:11.940Z,12.80
2022-09-14T03:00:46.090Z,12.80
2022-09-14T03:03:18.100Z,12.80
2022-09-14T03:05:47.539Z,12.80
2022-09-14T03:08:16.510Z,12.80
2022-09-14T03:10:45.934Z,12.80
2022-09-14T03:13:14.145Z,12.80
2022-09-14T03:15:43.873Z,12.80
2022-09-14T03:18:14.594Z,12.80
2022-09-14T03:20:43.927Z,12.80
2022-09-14T03:23:13.583Z,12.80
2022-09-14T03:25:44.349Z,12.90
2022-09-14T03:28:14.191Z,12.80
2022-09-14T03:30:43.804Z,12.80
2022-09-14T03:33:12.181Z,12.80
2022-09-14T03:35:40.350Z,13.00
2022-09-14T03:38:08.489Z,12.80
2022-09-14T03:40:36.758Z,12.80
2022-09-14T03:43:04.772Z,12.80
2022-09-14T03:45:32.789Z,12.70
2022-09-14T03:48:02.552Z,12.70
2022-09-14T03:50:30.631Z,12.70
2022-09-14T03:52:59.343Z,12.70
2022-09-14T03:55:27.807Z,12.70
2022-09-14T03:57:56.662Z,12.70
2022-09-14T04:00:24.901Z,12.70
2022-09-14T04:02:53.197Z,12.60
2022-09-14T04:05:22.980Z,12.50
2022-09-14T04:07:51.032Z,12.50
2022-09-14T04:10:19.239Z,12.60
2022-09-14T04:12:47.249Z,12.60
2022-09-14T04:15:15.365Z,12.60
2022-09-14T04:17:43.424Z,12.60
2022-09-14T04:20:11.976Z,12.50
2022-09-14T04:22:41.442Z,12.50
2022-09-14T04:25:10.006Z,12.50
2022-09-14T04:27:38.268Z,12.50
2022-09-14T04:30:08.001Z,12.40
2022-09-14T04:32:36.064Z,12.40
2022-09-14T04:35:04.332Z,12.30
2022-09-14T04:37:33.120Z,12.40
2022-09-14T04:40:03.574Z,12.40
2022-09-14T04:42:32.003Z,12.40
2022-09-14T04:45:00.030Z,12.40
2022-09-14T04:47:30.689Z,12.40
2022-09-14T04:49:58.670Z,12.50
2022-09-14T04:52:26.648Z,12.50
2022-09-14T04:54:54.660Z,12.50
2022-09-14T04:57:24.270Z,12.50
2022-09-14T04:59:52.312Z,12.50
2022-09-14T05:02:20.374Z,12.60
2022-09-14T05:04:48.636Z,12.60
2022-09-14T05:07:16.774Z,12.50
2022-09-14T05:09:45.494Z,12.60
2022-09-14T05:12:13.564Z,12.60
2022-09-14T05:14:42.897Z,12.70
2022-09-14T05:17:11.043Z,12.70
2022-09-14T05:19:39.054Z,12.70
2022-09-14T05:22:07.057Z,12.80
2022-09-14T05:24:35.697Z,12.80
2022-09-14T05:27:03.691Z,12.90
2022-09-14T05:29:31.949Z,13.00
2022-09-14T05:32:01.561Z,13.10
2022-09-14T05:34:29.539Z,13.10
2022-09-14T05:36:57.550Z,13.20
2022-09-14T05:39:26.009Z,13.10
2022-09-14T05:41:54.173Z,13.10
2022-09-14T05:44:22.223Z,13.10
2022-09-14T05:46:50.400Z,13.10
2022-09-14T05:49:19.877Z,13.10
2022-09-14T05:51:47.979Z,13.20
2022-09-14T05:54:17.426Z,13.20
2022-09-14T05:56:45.467Z,13.20
2022-09-14T05:59:13.628Z,13.10
2022-09-14T06:01:41.740Z,13.10
2022-09-14T06:04:12.400Z,13.10
2022-09-14T06:06:49.319Z,13.20
2022-09-14T06:09:33.081Z,13.20
2022-09-14T06:12:01.326Z,13.30
2022-09-14T06:14:29.379Z,13.40
2022-09-14T06:16:57.381Z,13.40
2022-09-14T06:19:25.555Z,13.50
2022-09-14T06:21:55.112Z,13.50
2022-09-14T06:24:23.172Z,13.60
2022-09-14T06:26:51.159Z,13.60
2022-09-14T06:29:19.145Z,13.50
2022-09-14T06:31:47.140Z,13.50
2022-09-14T06:34:15.126Z,13.60
2022-09-14T06:36:43.268Z,13.60
2022-09-14T06:39:13.011Z,13.60
2022-09-14T06:41:41.106Z,13.70
2022-09-14T06:44:09.113Z,13.70
2022-09-14T06:46:37.584Z,13.70
2022-09-14T06:49:09.405Z,13.80
2022-09-14T06:51:39.837Z,13.80
2022-09-14T06:54:09.514Z,13.90
2022-09-14T06:56:41.137Z,13.70
2022-09-14T06:59:15.043Z,13.80
2022-09-14T07:01:45.273Z,13.90
2022-09-14T07:04:14.337Z,14.00
2022-09-14T07:06:44.933Z,14.00
2022-09-14T07:09:15.264Z,14.10
2022-09-14T07:11:45.568Z,14.00
2022-09-14T07:14:14.272Z,14.00
2022-09-14T07:16:42.728Z,13.90
2022-09-14T07:19:15.236Z,13.90
2022-09-14T07:21:43.556Z,14.00
2022-09-14T07:24:14.798Z,14.10
2022-09-14T07:26:45.318Z,14.20
2022-09-14T07:29:16.924Z,14.30
2022-09-14T07:31:48.205Z,14.50
2022-09-14T07:34:17.046Z,14.60
2022-09-14T07:36:45.973Z,14.70
2022-09-14T07:39:16.485Z,14.80
2022-09-14T07:41:49.008Z,15.00
2022-09-14T07:44:19.230Z,15.20
2022-09-14T07:46:48.326Z,15.50
2022-09-14T07:49:18.204Z,15.70
2022-09-14T07:51:46.712Z,15.90
2022-09-14T07:54:18.778Z,16.00
2022-09-14T07:56:50.579Z,16.00
2022-09-14T07:59:36.505Z,15.90
2022-09-14T08:02:08.330Z,15.90
2022-09-14T08:04:37.730Z,15.90
2022-09-14T08:07:06.392Z,15.80
2022-09-14T08:09:34.615Z,16.00
2022-09-14T08:12:05.838Z,16.20
2022-09-14T08:14:34.179Z,16.30
2022-09-14T08:17:02.313Z,16.50
2022-09-14T08:19:30.763Z,16.60
2022-09-14T08:21:58.939Z,16.70
2022-09-14T08:24:26.962Z,16.70
2022-09-14T08:26:55.314Z,16.60
2022-09-14T08:29:24.898Z,16.40
2022-09-14T08:31:53.596Z,16.30
2022-09-14T08:34:21.946Z,16.40
2022-09-14T08:36:50.072Z,16.50
2022-09-14T08:39:19.490Z,16.70
2022-09-14T08:42:00.125Z,16.90
2022-09-14T08:44:34.541Z,17.00
2022-09-14T08:47:06.049Z,17.00
2022-09-14T08:49:49.326Z,16.90
2022-09-14T08:52:26.493Z,16.70
2022-09-14T08:54:58.042Z,16.80
2022-09-14T08:57:39.072Z,16.70
2022-09-14T09:00:14.877Z,16.90
2022-09-14T09:03:14.288Z,17.00
2022-09-14T09:05:52.596Z,17.20
2022-09-14T09:08:31.165Z,17.30
2022-09-14T09:11:02.399Z,17.10
2022-09-14T09:13:36.777Z,16.90
2022-09-14T09:16:11.776Z,16.90
2022-09-14T09:18:47.894Z,16.90
2022-09-14T09:21:20.053Z,17.00
2022-09-14T09:23:48.128Z,17.20
2022-09-14T09:26:25.345Z,17.50
2022-09-14T09:28:58.106Z,17.70
2022-09-14T09:31:34.244Z,17.70
2022-09-14T09:34:04.002Z,17.90
2022-09-14T09:36:38.045Z,18.00
2022-09-14T09:39:06.715Z,17.90
2022-09-14T09:41:45.803Z,18.00
2022-09-14T09:44:14.153Z,18.20
2022-09-14T09:46:50.143Z,18.30
2022-09-14T09:49:23.759Z,17.90
2022-09-14T09:51:54.314Z,18.20
2022-09-14T09:54:30.603Z,18.20
2022-09-14T09:57:01.532Z,18.30
2022-09-14T09:59:35.274Z,18.30
2022-09-14T10:02:27.532Z,18.30
2022-09-14T10:05:03.326Z,18.20
2022-09-14T10:07:37.594Z,18.40
2022-09-14T10:10:10.071Z,18.60
2022-09-14T10:12:47.175Z,18.70
2022-09-14T10:15:21.460Z,18.80
2022-09-14T10:18:09.945Z,18.70
2022-09-14T10:20:40.881Z,18.40
2022-09-14T10:23:26.407Z,18.30
2022-09-14T10:26:19.705Z,18.10
2022-09-14T10:28:50.488Z,18.20
2022-09-14T10:31:31.125Z,18.50
2022-09-14T10:34:01.814Z,18.60
2022-09-14T10:36:32.977Z,18.70
2022-09-14T10:39:14.287Z,18.90
2022-09-14T10:41:50.367Z,19.00
2022-09-14T10:44:47.017Z,19.10
2022-09-14T10:47:43.005Z,19.30
2022-09-14T10:50:33.429Z,19.30
2022-09-14T10:53:20.966Z,19.00
2022-09-14T10:56:01.809Z,18.90
2022-09-14T10:59:04.063Z,18.70
2022-09-14T11:02:04.105Z,18.70
2022-09-14T11:04:52.168Z,18.60
2022-09-14T11:07:35.897Z,18.40
2022-09-14T11:10:20.042Z,18.40
2022-09-14T11:13:05.623Z,18.40
2022-09-14T11:15:46.265Z,18.70
2022-09-14T11:18:32.248Z,18.90
2022-09-14T11:21:15.619Z,19.20
2022-09-14T11:23:52.385Z,19.20
2022-09-14T11:26:31.386Z,19.40
2022-09-14T11:29:15.669Z,19.50
2022-09-14T11:32:16.929Z,19.60
2022-09-14T11:34:47.479Z,19.60
2022-09-14T11:37:20.226Z,19.70
2022-09-14T11:40:01.125Z,19.60
2022-09-14T11:42:38.916Z,19.80
2022-09-14T11:45:20.396Z,19.70
2022-09-14T11:47:58.990Z,19.70
2022-09-14T11:50:31.662Z,19.60
2022-09-14T11:53:11.502Z,19.20
2022-09-14T11:55:48.118Z,18.90
2022-09-14T11:58:22.605Z,19.10
2022-09-14T12:01:26.940Z,19.60
2022-09-14T12:04:15.070Z,19.80
2022-09-14T12:07:05.727Z,19.90
2022-09-14T12:09:43.378Z,19.80
2022-09-14T12:12:41.388Z,19.80
2022-09-14T12:15:33.101Z,19.70
2022-09-14T12:18:24.207Z,19.00
2022-09-14T12:21:03.788Z,19.00
2022-09-14T12:23:43.978Z,18.80
2022-09-14T12:26:36.513Z,18.80
2022-09-14T12:29:28.717Z,18.70
2022-09-14T12:32:26.821Z,18.60
2022-09-14T12:35:47.003Z,18.90
2022-09-14T12:39:08.215Z,19.40
2022-09-14T12:42:27.256Z,19.60
2022-09-14T12:44:56.803Z,19.90
2022-09-14T12:47:57.857Z,20.20
2022-09-14T12:50:34.591Z,20.00
2022-09-14T12:53:24.584Z,20.10
2022-09-14T12:56:06.287Z,19.80
2022-09-14T12:58:59.901Z,19.60
2022-09-14T13:01:49.692Z,19.80
2022-09-14T13:04:25.886Z,20.00
2022-09-14T13:06:57.368Z,19.90
2022-09-14T13:09:29.043Z,19.80
2022-09-14T13:11:59.964Z,19.60
2022-09-14T13:14:34.023Z,19.60
2022-09-14T13:17:06.070Z,19.30
2022-09-14T13:19:35.240Z,19.30
2022-09-14T13:22:17.380Z,19.40
2022-09-14T13:24:49.089Z,19.50
2022-09-14T13:27:25.373Z,19.50
2022-09-14T13:30:02.905Z,19.50
2022-09-14T13:32:35.551Z,19.50
2022-09-14T13:35:06.997Z,19.50
2022-09-14T13:37:38.925Z,19.50
2022-09-14T13:40:09.409Z,19.50
2022-09-14T13:42:37.648Z,19.50
2022-09-14T13:45:07.961Z,19.50
2022-09-14T13:47:40.642Z,19.50
2022-09-14T13:50:10.085Z,19.80
2022-09-14T13:53:01.058Z,19.60
2022-09-14T13:55:44.899Z,19.60
2022-09-14T13:58:23.472Z,19.50
2022-09-14T14:01:00.043Z,19.70
2022-09-14T14:03:33.918Z,19.80
2022-09-14T14:06:20.368Z,19.60
2022-09-14T14:09:00.519Z,19.40
2022-09-14T14:11:37.315Z,19.50
2022-09-14T14:14:24.053Z,19.60
2022-09-14T14:17:37.622Z,19.60
2022-09-14T14:20:35.359Z,19.40
2022-09-14T14:23:21.177Z,19.30
2022-09-14T14:25:55.805Z,19.20
2022-09-14T14:28:27.397Z,19.30
2022-09-14T14:30:56.740Z,19.20
2022-09-14T14:33:25.700Z,19.10
2022-09-14T14:35:57.385Z,19.20
2022-09-14T14:38:26.363Z,19.00
2022-09-14T14:40:58.006Z,19.00
2022-09-14T14:43:28.285Z,18.90
2022-09-14T14:45:59.487Z,18.50
2022-09-14T14:48:31.642Z,18.40
2022-09-14T14:51:01.932Z,18.60
2022-09-14T14:53:29.995Z,18.70
2022-09-14T14:55:58.146Z,18.60
2022-09-14T14:58:26.446Z,18.50
2022-09-14T15:00:54.729Z,18.50
2022-09-14T15:03:22.897Z,18.60
2022-09-14T15:05:51.094Z,18.50
2022-09-14T15:08:20.766Z,18.50
2022-09-14T15:10:49.598Z,18.50
2022-09-14T15:13:17.696Z,18.40
2022-09-14T15:15:45.994Z,18.30
2022-09-14T15:18:14.112Z,18.20
2022-09-14T15:20:42.194Z,18.30
2022-09-14T15:23:14.086Z,18.20
2022-09-14T15:25:43.514Z,18.20
2022-09-14T15:28:11.511Z,18.10
2022-09-14T15:30:41.887Z,17.90
2022-09-14T15:33:10.027Z,17.90
2022-09-14T15:35:38.989Z,17.90
2022-09-14T15:38:07.524Z,17.80
2022-09-14T15:40:35.632Z,17.80
2022-09-14T15:43:05.197Z,17.80
2022-09-14T15:45:34.140Z,17.80
2022-09-14T15:48:03.062Z,17.80
2022-09-14T15:50:31.215Z,17.80
2022-09-14T15:53:02.538Z,17.70
2022-09-14T15:55:32.774Z,17.70
2022-09-14T15:58:01.079Z,17.60
2022-09-14T16:00:30.584Z,17.50
2022-09-14T16:02:58.822Z,17.40
2022-09-14T16:05:26.945Z,17.20
2022-09-14T16:07:55.317Z,17.10
2022-09-14T16:10:25.531Z,17.10
2022-09-14T16:12:56.163Z,16.90
2022-09-14T16:15:24.857Z,16.90
2022-09-14T16:17:58.044Z,16.90
2022-09-14T16:20:26.157Z,16.90
2022-09-14T16:22:54.511Z,16.90
2022-09-14T16:25:22.497Z,16.90
2022-09-14T16:27:50.473Z,16.90
2022-09-14T16:30:18.573Z,16.90
2022-09-14T16:32:47.203Z,16.80
2022-09-14T16:35:16.780Z,16.80
2022-09-14T16:37:44.733Z,16.70
2022-09-14T16:40:13.167Z,16.70
2022-09-14T16:42:41.216Z,16.70
2022-09-14T16:45:10.321Z,16.60
2022-09-14T16:47:38.433Z,16.60
2022-09-14T16:50:07.339Z,16.60
2022-09-14T16:52:36.743Z,16.70
2022-09-14T16:55:05.972Z,16.60
2022-09-14T16:57:34.033Z,16.50
2022-09-14T17:00:03.252Z,16.50
2022-09-14T17:02:31.494Z,16.50
2022-09-14T17:04:59.593Z,16.40
2022-09-14T17:07:27.770Z,16.40
2022-09-14T17:09:57.190Z,16.30
2022-09-14T17:12:25.181Z,16.40
2022-09-14T17:14:53.764Z,16.30
2022-09-14T17:17:21.918Z,16.30
2022-09-14T17:19:51.143Z,16.30
2022-09-14T17:22:19.170Z,16.30
2022-09-14T17:24:47.256Z,16.20
2022-09-14T17:27:18.776Z,16.20
2022-09-14T17:29:46.960Z,16.10
2022-09-14T17:32:17.456Z,16.10
2022-09-14T17:34:46.824Z,16.10
2022-09-14T17:37:14.931Z,16.10
2022-09-14T17:39:43.222Z,16.00
2022-09-14T17:42:11.284Z,16.00
2022-09-14T17:44:40.898Z,16.00
2022-09-14T17:47:08.964Z,16.00
2022-09-14T17:49:37.236Z,15.90
2022-09-14T17:52:06.302Z,15.90
2022-09-14T17:54:34.621Z,15.90
2022-09-14T17:57:02.620Z,15.80
2022-09-14T17:59:30.791Z,15.80
2022-09-14T18:02:00.368Z,15.80
2022-09-14T18:04:28.749Z,15.80
2022-09-14T18:06:56.866Z,15.70
2022-09-14T18:09:26.019Z,15.70
2022-09-14T18:11:57.730Z,15.70
2022-09-14T18:14:26.948Z,15.60
2022-09-14T18:16:55.180Z,15.60
2022-09-14T18:19:24.693Z,15.60
2022-09-14T18:21:53.228Z,15.60
2022-09-14T18:24:21.813Z,15.60
2022-09-14T18:26:50.061Z,15.60
2022-09-14T18:29:21.652Z,15.60
2022-09-14T18:31:50.059Z,15.50
2022-09-14T18:34:19.200Z,15.50
2022-09-14T18:36:48.993Z,15.40
2022-09-14T18:39:17.716Z,15.40
2022-09-14T18:41:46.018Z,15.40
2022-09-14T18:44:14.200Z,15.40
2022-09-14T18:46:44.282Z,15.30
2022-09-14T18:49:12.437Z,15.30
2022-09-14T18:51:40.888Z,15.30
2022-09-14T18:54:13.996Z,15.20
2022-09-14T18:56:42.434Z,15.30
2022-09-14T18:59:14.107Z,15.30
2022-09-14T19:01:43.669Z,15.30
2022-09-14T19:04:12.579Z,15.30
2022-09-14T19:06:42.029Z,15.30
2022-09-14T19:09:12.789Z,15.30
2022-09-14T19:11:40.907Z,15.30
2022-09-14T19:14:12.595Z,15.20
2022-09-14T19:16:42.217Z,15.20
2022-09-14T19:19:14.992Z,15.20
2022-09-14T19:21:44.763Z,15.20
2022-09-14T19:24:16.829Z,15.20
2022-09-14T19:26:51.366Z,15.20
2022-09-14T19:29:23.028Z,15.10
2022-09-14T19:31:52.383Z,15.10
2022-09-14T19:34:22.543Z,15.10
2022-09-14T19:36:53.263Z,15.10
2022-09-14T19:39:23.802Z,15.10
2022-09-14T19:41:52.351Z,15.10
2022-09-14T19:44:22.264Z,15.10
2022-09-14T19:46:50.413Z,15.10
2022-09-14T19:49:23.169Z,15.10
2022-09-14T19:51:52.257Z,15.10
2022-09-14T19:54:22.147Z,15.10
2022-09-14T19:56:50.597Z,15.00
2022-09-14T19:59:18.795Z,15.00
2022-09-14T20:01:47.524Z,15.00
2022-09-14T20:04:18.205Z,15.00
2022-09-14T20:06:48.468Z,15.00
2022-09-14T20:09:20.437Z,15.00
2022-09-14T20:11:52.661Z,15.00
2022-09-14T20:14:24.089Z,15.00
2022-09-14T20:16:55.479Z,15.00
2022-09-14T20:19:27.086Z,15.00
2022-09-14T20:21:56.069Z,15.00
2022-09-14T20:24:26.373Z,15.00
2022-09-14T20:26:59.691Z,15.00
2022-09-14T20:29:30.740Z,14.90
2022-09-14T20:31:59.500Z,14.90
2022-09-14T20:34:27.862Z,14.90
2022-09-14T20:36:56.733Z,14.90
2022-09-14T20:39:27.437Z,14.90
2022-09-14T20:41:57.160Z,14.90
2022-09-14T20:44:25.204Z,14.90
2022-09-14T20:46:53.307Z,14.90
2022-09-14T20:49:24.395Z,14.80
2022-09-14T20:51:54.221Z,14.80
2022-09-14T20:54:23.151Z,14.80
2022-09-14T20:56:51.368Z,14.90
2022-09-14T20:59:22.258Z,14.80
2022-09-14T21:01:52.685Z,14.80
2022-09-14T21:04:24.212Z,14.80
2022-09-14T21:06:55.832Z,14.80
2022-09-14T21:09:27.064Z,14.80
2022-09-14T21:11:55.443Z,14.60
2022-09-14T21:14:24.822Z,14.60
2022-09-14T21:16:56.849Z,14.60
2022-09-14T21:19:28.748Z,14.60
2022-09-14T21:21:57.493Z,14.70
2022-09-14T21:24:26.379Z,14.70
2022-09-14T21:26:54.567Z,14.70
2022-09-14T21:29:25.130Z,14.70
2022-09-14T21:31:54.254Z,14.60
2022-09-14T21:34:22.686Z,14.60
2022-09-14T21:36:52.810Z,14.60
2022-09-14T21:39:24.427Z,14.60
2022-09-14T21:41:58.471Z,14.60
2022-09-14T21:44:32.125Z,14.60
2022-09-14T21:47:00.648Z,14.50
2022-09-14T21:49:29.487Z,14.50
2022-09-14T21:51:57.675Z,14.50
2022-09-14T21:54:25.778Z,14.40
2022-09-14T21:56:54.708Z,14.40
2022-09-14T21:59:23.938Z,14.40
2022-09-14T22:01:53.730Z,14.40
2022-09-14T22:04:25.294Z,14.40
2022-09-14T22:06:55.023Z,14.30
2022-09-14T22:09:28.258Z,14.30
2022-09-14T22:11:57.462Z,14.20
2022-09-14T22:14:29.071Z,14.20
2022-09-14T22:16:58.525Z,14.10
2022-09-14T22:19:29.391Z,14.10
2022-09-14T22:21:58.063Z,14.10
2022-09-14T22:24:37.120Z,14.00
2022-09-14T22:27:07.595Z,14.00
2022-09-14T22:29:36.081Z,14.10
2022-09-14T22:32:07.127Z,14.00
2022-09-14T22:34:35.728Z,14.00
2022-09-14T22:37:04.613Z,13.90
2022-09-14T22:39:32.778Z,13.90
2022-09-14T22:42:00.936Z,13.90
2022-09-14T22:44:29.205Z,13.90
2022-09-14T22:46:57.265Z,13.80
2022-09-14T22:49:26.786Z,13.80
2022-09-14T22:51:54.843Z,13.80
2022-09-14T22:54:23.151Z,13.70
2022-09-14T22:56:51.339Z,13.70
2022-09-14T22:59:19.465Z,13.70
2022-09-14T23:01:47.597Z,13.70
2022-09-14T23:04:15.730Z,13.70
2022-09-14T23:06:48.769Z,13.70
2022-09-14T23:09:21.047Z,13.70
2022-09-14T23:11:50.162Z,13.60
2022-09-14T23:14:18.582Z,13.60
2022-09-14T23:16:46.765Z,13.60
2022-09-14T23:19:19.194Z,13.60
2022-09-14T23:21:48.856Z,13.60
2022-09-14T23:24:17.070Z,13.60
2022-09-14T23:26:45.207Z,13.60
2022-09-14T23:29:17.499Z,13.60
2022-09-14T23:31:46.199Z,13.60
2022-09-14T23:34:17.223Z,13.60
2022-09-14T23:36:45.464Z,13.60
2022-09-14T23:39:15.149Z,13.60
2022-09-14T23:41:43.265Z,13.60
2022-09-14T23:44:12.920Z,13.70
2022-09-14T23:46:41.087Z,13.70
2022-09-14T23:49:09.566Z,13.70
2022-09-14T23:51:37.750Z,13.70
2022-09-14T23:54:08.145Z,13.70
2022-09-14T23:56:38.510Z,13.70
2022-09-14T23:59:07.209Z,13.70
